»·PEaware :: N46AN KMHV-KSBD

N46AN :: KMHV-KSBD

FLIGHT INFORMATION

Flight Status: Arrived
Operator: Privately registered:
United States
More flights under this callsign
Pilot: Carson T. (20437)
Aircraft: CESSNA 172 SKYHAWK
(C172)
More flights by this aircraft type
Origin: KMHV Mojave
United States
Destination: KSBD San Bernardino Intl
United States
More flights between these airports :: More routes between these airports
Route: PMD
File this flight plan on PilotEdge
Remarks:
Altitude:
(Current/Filed)
5,500ft
Speed:
(Current/Filed)
115kts
Departed: 15-Sep-18 02:29 PM
Arrived: 15-Sep-18 03:11 PM
Distance/Time
Traveled:
73nm/0:42
Distance/Time
To Go:
Arrived

Flight Plot

Page will automatically refresh every two minutes.


Map Options




Map Legend


Flown Route
Filed Route
Departure Airport
Arrival Airport
Navaid (VOR, NDB)
Fix

Horizontal Profiles

Position Reports

Time Latitude Longitude Heading Altitude Ground
Speed
15-Sep-18 13:59 35.056942 -118.152740 268 2794ft 0kts
15-Sep-18 14:00 35.056942 -118.152740 268 2794ft 0kts
15-Sep-18 14:01 35.056942 -118.152740 268 2794ft 0kts
15-Sep-18 14:02 35.056942 -118.152740 268 2794ft 0kts
15-Sep-18 14:03 35.056942 -118.152740 268 2794ft 0kts
15-Sep-18 14:04 35.056942 -118.152740 268 2794ft 0kts
15-Sep-18 14:05 35.056942 -118.152740 268 2794ft 0kts
15-Sep-18 14:06 35.056942 -118.152740 268 2794ft 0kts
15-Sep-18 14:07 35.056942 -118.152743 268 2794ft 0kts
15-Sep-18 14:08 35.056942 -118.152744 268 2794ft 0kts
15-Sep-18 14:09 35.056942 -118.152744 268 2794ft 0kts
15-Sep-18 14:10 35.056942 -118.152745 268 2794ft 0kts
15-Sep-18 14:11 35.056942 -118.152745 268 2794ft 0kts
15-Sep-18 14:12 35.056942 -118.152745 268 2794ft 0kts
15-Sep-18 14:17 35.056789 -118.162716 268 2794ft 0kts
15-Sep-18 14:18 35.056789 -118.162716 268 2794ft 0kts
15-Sep-18 14:19 35.056789 -118.162717 268 2794ft 0kts
15-Sep-18 14:20 35.056789 -118.162717 268 2794ft 0kts
15-Sep-18 14:21 35.056789 -118.162717 268 2794ft 0kts
15-Sep-18 14:22 35.056789 -118.162718 268 2794ft 0kts
15-Sep-18 14:23 35.057446 -118.162164 90 2794ft 7kts
15-Sep-18 14:24 35.057448 -118.159696 89 2794ft 8kts
15-Sep-18 14:25 35.057451 -118.155996 89 2794ft 15kts
15-Sep-18 14:26 35.057453 -118.151026 90 2794ft 15kts
15-Sep-18 14:27 35.057464 -118.146569 89 2794ft 13kts
15-Sep-18 14:28 35.058043 -118.142622 0 2794ft 7kts
15-Sep-18 14:29 35.058729 -118.142617 0 2794ft 0kts
15-Sep-18 14:30 35.058729 -118.142617 0 2794ft 0kts
15-Sep-18 14:31 35.059205 -118.155164 270 2861ft 83kts
15-Sep-18 14:32 35.055918 -118.182368 195 3412ft 91kts
15-Sep-18 14:33 35.032607 -118.173280 147 3963ft 90kts
15-Sep-18 14:34 35.011155 -118.157564 150 4540ft 90kts
15-Sep-18 14:35 34.987493 -118.147014 172 5084ft 93kts
15-Sep-18 14:36 34.961059 -118.140786 175 5523ft 105kts
15-Sep-18 14:37 34.927879 -118.132965 173 5502ft 129kts
15-Sep-18 14:38 34.892139 -118.124426 174 5500ft 131kts
15-Sep-18 14:39 34.856206 -118.116128 174 5500ft 131kts
15-Sep-18 14:40 34.820256 -118.107685 173 5500ft 131kts
15-Sep-18 14:41 34.784294 -118.099300 174 5500ft 131kts
15-Sep-18 14:42 34.748344 -118.090940 174 5500ft 131kts
15-Sep-18 14:43 34.712266 -118.082621 174 5500ft 131kts
15-Sep-18 14:44 34.676276 -118.074258 174 5500ft 131kts
15-Sep-18 14:45 34.640303 -118.065962 174 5500ft 131kts
15-Sep-18 14:46 34.613069 -118.036020 129 5500ft 136kts
15-Sep-18 14:47 34.589291 -118.000003 129 5499ft 136kts
15-Sep-18 14:48 34.565805 -117.963764 121 5499ft 137kts
15-Sep-18 14:49 34.547420 -117.923280 118 5499ft 137kts
15-Sep-18 14:50 34.529055 -117.882729 118 5500ft 137kts
15-Sep-18 14:51 34.513681 -117.849012 119 5500ft 137kts
15-Sep-18 14:52 34.492075 -117.801972 119 5500ft 137kts
15-Sep-18 14:53 34.473369 -117.761567 119 5500ft 137kts
15-Sep-18 14:54 34.457793 -117.728145 119 5500ft 137kts
15-Sep-18 14:55 34.435821 -117.681305 118 5499ft 137kts
15-Sep-18 14:56 34.421648 -117.646829 115 5500ft 137kts
15-Sep-18 14:57 34.402796 -117.598134 114 5500ft 137kts
15-Sep-18 14:58 34.377663 -117.577936 140 5497ft 136kts
15-Sep-18 14:59 34.349518 -117.547145 140 5499ft 136kts
15-Sep-18 15:00 34.321117 -117.516787 140 5500ft 136kts
15-Sep-18 15:01 34.290652 -117.490951 159 5501ft 134kts
15-Sep-18 15:02 34.256984 -117.471317 156 5499ft 134kts
15-Sep-18 15:03 34.225128 -117.447160 138 5424ft 141kts
15-Sep-18 15:04 34.198693 -117.410734 128 4934ft 144kts
15-Sep-18 15:05 34.173621 -117.373524 128 4435ft 141kts
15-Sep-18 15:06 34.149338 -117.337386 128 3926ft 127kts
15-Sep-18 15:07 34.129363 -117.307550 128 3208ft 108kts
15-Sep-18 15:08 34.112491 -117.278805 112 2534ft 99kts
15-Sep-18 15:09 34.108486 -117.249358 77 2147ft 82kts
15-Sep-18 15:10 34.114386 -117.223150 73 1928ft 73kts
15-Sep-18 15:11 34.107829 -117.205975 182 1821ft 72kts
15-Sep-18 15:12 34.098388 -117.224577 250 1160ft 43kts
15-Sep-18 15:13 34.098524 -117.226647 19 1160ft 0kts
15-Sep-18 15:14 34.099815 -117.226778 10 1160ft 8kts
15-Sep-18 15:15 34.101200 -117.225289 0 1160ft 7kts
15-Sep-18 15:16 34.101482 -117.225550 269 1160ft 0kts
15-Sep-18 15:17 34.101482 -117.225551 269 1160ft 0kts
15-Sep-18 15:18 34.101482 -117.225551 269 1160ft 0kts
15-Sep-18 15:19 34.101482 -117.225552 269 1160ft 0kts
15-Sep-18 15:20 34.101482 -117.225552 269 1160ft 0kts
15-Sep-18 15:21 34.101482 -117.225553 269 1160ft 0kts
15-Sep-18 15:22 34.101482 -117.225553 269 1160ft 0kts
15-Sep-18 15:23 34.101482 -117.225553 269 1160ft 0kts
15-Sep-18 15:24 34.101482 -117.225553 269 1160ft 0kts
15-Sep-18 15:25 34.101482 -117.225553 269 1160ft 0kts
15-Sep-18 15:26 34.101482 -117.225553 269 1160ft 0kts
15-Sep-18 15:27 34.101482 -117.225553 269 1160ft 0kts

Navigation Log

Ident Type
Flight plan parsing failed, navigation log unavailable